createdAt,value
2019-02-18T00:02:43.269Z,101212.98
2019-02-18T00:07:46.719Z,101214.66
2019-02-18T00:12:50.283Z,101213.80
2019-02-18T00:17:53.697Z,101212.69
2019-02-18T00:22:57.150Z,101212.70
2019-02-18T00:28:00.777Z,101220.92
2019-02-18T00:33:04.197Z,101218.76
2019-02-18T00:38:07.604Z,101218.53
2019-02-18T00:43:11.049Z,101213.23
2019-02-18T00:48:14.470Z,101212.67
2019-02-18T00:53:17.893Z,101216.63
2019-02-18T00:58:21.334Z,101213.28
2019-02-18T01:03:25.814Z,101213.73
2019-02-18T01:08:29.372Z,101212.86
2019-02-18T01:13:32.808Z,101212.95
2019-02-18T01:18:36.345Z,101218.98
2019-02-18T01:23:39.767Z,101218.49
2019-02-18T01:28:43.224Z,101213.30
2019-02-18T01:33:46.763Z,101213.73
2019-02-18T01:38:50.206Z,101204.78
2019-02-18T01:43:53.634Z,101197.83
2019-02-18T01:48:57.068Z,101197.35
2019-02-18T01:54:00.526Z,101199.81
2019-02-18T01:59:03.952Z,101192.94
2019-02-18T02:04:07.399Z,101181.19
2019-02-18T02:09:12.618Z,101180.45
2019-02-18T02:14:16.108Z,101180.77
2019-02-18T02:19:19.531Z,101181.14
2019-02-18T02:24:22.976Z,101180.54
2019-02-18T02:29:26.440Z,101179.61
2019-02-18T02:34:29.877Z,101172.56
2019-02-18T02:39:33.310Z,101169.89
2019-02-18T02:44:36.737Z,101166.73
2019-02-18T02:49:40.208Z,101165.65
2019-02-18T02:54:43.681Z,101161.03
2019-02-18T02:59:47.110Z,101161.10
2019-02-18T03:04:50.546Z,101156.63
2019-02-18T03:09:53.971Z,101156.41
2019-02-18T03:14:57.409Z,101158.59
2019-02-18T03:20:00.855Z,101157.25
2019-02-18T03:25:21.195Z,101157.60
2019-02-18T03:30:45.054Z,101152.26
2019-02-18T03:35:48.467Z,101158.11
2019-02-18T03:41:02.435Z,101157.19
2019-02-18T03:45:57.121Z,101156.15
2019-02-18T03:51:00.551Z,101160.91
2019-02-18T03:56:04.057Z,101161.33
2019-02-18T04:01:07.693Z,101162.07
2019-02-18T04:06:11.136Z,101163.58
2019-02-18T04:11:15.125Z,101160.58
2019-02-18T04:16:18.586Z,101173.11
2019-02-18T04:21:22.004Z,101172.03
2019-02-18T04:26:25.434Z,101169.11
2019-02-18T04:31:28.878Z,101161.77
2019-02-18T04:36:32.525Z,101169.25
2019-02-18T04:41:35.893Z,101173.84
2019-02-18T04:46:39.423Z,101173.67
2019-02-18T04:51:42.863Z,101166.41
2019-02-18T04:56:46.290Z,101162.09
2019-02-18T05:01:49.718Z,101165.36
2019-02-18T05:06:53.168Z,101151.93
2019-02-18T05:11:56.590Z,101147.89
2019-02-18T05:17:00.022Z,101141.59
2019-02-18T05:22:03.457Z,101144.87
2019-02-18T05:27:06.884Z,101137.39
2019-02-18T05:32:10.315Z,101134.68
2019-02-18T05:37:13.735Z,101132.80
2019-02-18T05:42:17.185Z,101138.64
2019-02-18T05:47:20.613Z,101131.66
2019-02-18T05:52:24.070Z,101129.05
2019-02-18T05:57:27.501Z,101123.80
2019-02-18T06:02:30.923Z,101124.83
2019-02-18T06:07:34.351Z,101126.05
2019-02-18T06:12:37.823Z,101127.86
2019-02-18T06:17:41.350Z,101126.23
2019-02-18T06:22:44.858Z,101122.33
2019-02-18T06:27:48.333Z,101127.02
2019-02-18T06:32:51.826Z,101130.81
2019-02-18T06:37:55.246Z,101127.72
2019-02-18T06:42:58.667Z,101134.49
2019-02-18T06:48:03.736Z,101138.66
2019-02-18T06:53:07.197Z,101144.60
2019-02-18T06:58:18.048Z,101146.58
2019-02-18T07:03:41.141Z,101151.46
2019-02-18T07:08:58.085Z,101149.83
2019-02-18T07:14:01.595Z,101151.53
2019-02-18T07:19:05.029Z,101150.73
2019-02-18T07:24:08.462Z,101151.34
2019-02-18T07:29:11.875Z,101143.84
2019-02-18T07:34:15.297Z,101142.66
2019-02-18T07:39:18.723Z,101145.00
2019-02-18T07:44:22.154Z,101144.77
2019-02-18T07:49:26.183Z,101135.06
2019-02-18T07:54:29.987Z,101145.08
2019-02-18T07:59:33.442Z,101138.95
2019-02-18T08:04:36.882Z,101128.66
2019-02-18T08:09:40.328Z,101133.39
2019-02-18T08:14:44.281Z,101138.23
2019-02-18T08:19:47.692Z,101133.94
2019-02-18T08:24:51.138Z,101122.66
2019-02-18T08:29:54.619Z,101123.38
2019-02-18T08:34:58.048Z,101120.58
2019-02-18T08:40:01.482Z,101110.66
2019-02-18T08:45:07.743Z,101099.08
2019-02-18T08:50:13.068Z,101101.80
2019-02-18T08:55:16.870Z,101105.84
2019-02-18T09:00:21.166Z,101101.00
2019-02-18T09:05:24.914Z,101100.08
2019-02-18T09:10:33.446Z,101102.33
2019-02-18T09:15:34.538Z,101096.66
2019-02-18T09:20:38.054Z,101092.75
2019-02-18T09:25:45.695Z,101094.41
2019-02-18T09:30:50.111Z,101083.88
2019-02-18T09:35:53.613Z,101071.08
2019-02-18T09:40:57.144Z,101080.23
2019-02-18T09:46:00.582Z,101073.22
2019-02-18T09:51:04.013Z,101062.66
2019-02-18T09:56:07.635Z,101066.31
2019-02-18T10:01:11.080Z,101060.02
2019-02-18T10:06:16.188Z,101067.42
2019-02-18T10:11:19.865Z,101056.58
2019-02-18T10:16:26.868Z,101052.86
2019-02-18T10:21:30.514Z,101049.11
2019-02-18T10:26:34.424Z,101050.91
2019-02-18T10:31:38.381Z,101038.97
2019-02-18T10:36:43.170Z,101041.46
2019-02-18T10:41:46.707Z,101040.44
2019-02-18T10:46:50.468Z,101040.21
2019-02-18T10:51:56.865Z,101027.95
2019-02-18T10:57:02.333Z,101015.54
2019-02-18T11:02:06.048Z,101014.33
2019-02-18T11:07:15.241Z,101013.41
2019-02-18T11:12:20.129Z,101010.50
2019-02-18T11:17:26.696Z,101007.43
2019-02-18T11:22:30.108Z,100992.98
2019-02-18T11:27:33.567Z,100982.20
2019-02-18T11:32:37.239Z,100980.34
2019-02-18T11:37:41.537Z,100967.87
2019-02-18T11:42:45.476Z,100965.41
2019-02-18T11:47:49.538Z,100960.62
2019-02-18T11:52:53.297Z,100952.52
2019-02-18T11:57:57.453Z,100941.70
2019-02-18T12:03:11.595Z,100938.66
2019-02-18T12:08:09.389Z,100937.80
2019-02-18T12:13:12.820Z,100926.59
2019-02-18T12:18:16.932Z,100916.86
2019-02-18T12:23:21.152Z,100905.50
2019-02-18T12:28:25.226Z,100896.98
2019-02-18T12:33:35.168Z,100892.11
2019-02-18T12:38:42.215Z,100886.53
2019-02-18T12:43:48.931Z,100883.30
2019-02-18T12:49:04.463Z,100871.27
2019-02-18T12:54:05.331Z,100857.11
2019-02-18T12:59:08.964Z,100857.11
2019-02-18T13:04:12.615Z,100847.13
2019-02-18T13:09:22.657Z,100847.41
2019-02-18T13:14:49.187Z,100841.94
2019-02-18T13:19:40.115Z,100843.70
2019-02-18T13:24:55.237Z,100828.62
2019-02-18T13:30:07.628Z,100825.67
2019-02-18T13:35:14.186Z,100809.88
2019-02-18T13:40:25.523Z,100809.88
2019-02-18T13:45:28.918Z,100793.63
2019-02-18T13:50:36.686Z,100793.69
2019-02-18T13:55:45.361Z,100789.64
2019-02-18T14:00:49.238Z,100784.88
2019-02-18T14:05:54.934Z,100780.42
2019-02-18T14:11:14.404Z,100813.75
2019-02-18T14:16:18.975Z,100765.74
2019-02-18T14:21:28.391Z,100763.17
2019-02-18T14:26:35.641Z,100756.69
2019-02-18T14:31:44.002Z,100756.88
2019-02-18T14:36:54.584Z,100753.92
2019-02-18T14:42:05.601Z,100742.69
2019-02-18T14:47:12.053Z,100741.53
2019-02-18T14:52:18.880Z,100739.41
2019-02-18T14:57:27.092Z,100733.34
2019-02-18T15:02:36.810Z,100728.20
2019-02-18T15:07:57.238Z,100729.16
2019-02-18T15:13:05.879Z,100724.74
2019-02-18T15:18:09.284Z,100715.53
2019-02-18T15:23:15.316Z,100707.52
2019-02-18T15:28:27.112Z,100699.73
2019-02-18T15:33:43.279Z,100689.11
2019-02-18T15:38:45.165Z,100684.33
2019-02-18T15:43:51.458Z,100686.80
2019-02-18T15:49:01.256Z,100666.66
2019-02-18T15:54:09.316Z,100652.92
2019-02-18T15:59:10.446Z,100648.02
2019-02-18T16:04:14.278Z,100638.34
2019-02-18T16:09:19.797Z,100627.88
2019-02-18T16:14:24.991Z,100632.23
2019-02-18T16:19:30.625Z,100631.73
2019-02-18T16:24:35.723Z,100640.55
2019-02-18T16:29:42.669Z,100638.55
2019-02-18T16:34:50.653Z,100627.90
2019-02-18T16:39:58.556Z,100634.79
2019-02-18T16:45:01.996Z,100634.43
2019-02-18T16:50:06.774Z,100648.34
2019-02-18T16:55:12.309Z,100645.55
2019-02-18T17:00:29.305Z,100642.83
2019-02-18T17:05:48.800Z,100641.20
2019-02-18T17:10:45.281Z,100649.23
2019-02-18T17:15:51.677Z,100652.34
2019-02-18T17:20:56.984Z,100654.11
2019-02-18T17:26:00.424Z,100652.27
2019-02-18T17:31:04.026Z,100662.55
2019-02-18T17:36:07.897Z,100662.49
2019-02-18T17:41:11.441Z,100667.41
2019-02-18T17:46:14.884Z,100660.97
2019-02-18T17:51:18.397Z,100651.42
2019-02-18T17:56:21.835Z,100652.47
2019-02-18T18:01:25.518Z,100653.95
2019-02-18T18:06:29.025Z,100662.62
2019-02-18T18:11:32.955Z,100659.56
2019-02-18T18:16:37.247Z,100657.45
2019-02-18T18:21:40.959Z,100656.16
2019-02-18T18:26:44.676Z,100659.37
2019-02-18T18:31:48.122Z,100662.02
2019-02-18T18:36:51.557Z,100661.25
2019-02-18T18:41:55.042Z,100661.76
2019-02-18T18:46:58.507Z,100657.87
2019-02-18T18:52:01.990Z,100661.84
2019-02-18T18:57:05.497Z,100651.09
2019-02-18T19:02:09.388Z,100651.70
2019-02-18T19:07:12.827Z,100649.22
2019-02-18T19:12:16.314Z,100656.78
2019-02-18T19:17:19.753Z,100653.01
2019-02-18T19:22:23.190Z,100655.22
2019-02-18T19:27:26.679Z,100668.70
2019-02-18T19:32:30.130Z,100668.74
2019-02-18T19:37:33.590Z,100676.17
2019-02-18T19:42:37.126Z,100680.94
2019-02-18T19:47:40.639Z,100680.95
2019-02-18T19:52:44.386Z,100683.12
2019-02-18T19:57:47.811Z,100681.84
2019-02-18T20:02:51.507Z,100683.15
2019-02-18T20:07:54.933Z,100683.57
2019-02-18T20:12:58.368Z,100690.96
2019-02-18T20:18:02.129Z,100686.68
2019-02-18T20:23:05.723Z,100688.46
2019-02-18T20:28:09.175Z,100685.00
2019-02-18T20:33:12.747Z,100680.72
2019-02-18T20:38:16.192Z,100679.89
2019-02-18T20:43:19.879Z,100677.36
2019-02-18T20:48:23.318Z,100684.72
2019-02-18T20:53:26.762Z,100684.30
2019-02-18T20:58:30.293Z,100687.31
2019-02-18T21:03:34.272Z,100687.75
2019-02-18T21:08:37.777Z,100685.58
2019-02-18T21:13:41.212Z,100680.39
2019-02-18T21:18:44.742Z,100681.70
2019-02-18T21:23:49.185Z,100680.83
2019-02-18T21:28:52.697Z,100679.52
2019-02-18T21:33:56.126Z,100678.66
2019-02-18T21:38:59.618Z,100676.95
2019-02-18T21:44:03.094Z,100679.11
2019-02-18T21:49:06.477Z,100687.77
2019-02-18T21:54:09.992Z,100689.48
2019-02-18T21:59:13.434Z,100689.92
2019-02-18T22:04:18.045Z,100686.88
2019-02-18T22:09:21.690Z,100697.27
2019-02-18T22:14:33.084Z,100689.93
2019-02-18T22:19:30.382Z,100695.11
2019-02-18T22:24:33.826Z,100695.99
2019-02-18T22:29:37.233Z,100700.30
2019-02-18T22:34:40.665Z,100691.21
2019-02-18T22:39:44.118Z,100686.03
2019-02-18T22:44:47.997Z,100685.59
2019-02-18T22:49:51.432Z,100683.84
2019-02-18T22:54:54.850Z,100686.45
2019-02-18T22:59:59.521Z,100689.91
2019-02-18T23:05:03.301Z,100686.44
2019-02-18T23:10:07.591Z,100690.77
2019-02-18T23:15:11.100Z,100688.58
2019-02-18T23:20:14.542Z,100687.73
2019-02-18T23:25:17.973Z,100688.15
2019-02-18T23:30:21.410Z,100687.25
2019-02-18T23:35:24.844Z,100681.20
2019-02-18T23:40:28.308Z,100683.38
2019-02-18T23:45:31.723Z,100688.13
2019-02-18T23:50:35.141Z,100683.39
2019-02-18T23:55:38.582Z,100684.70
